Colstrip, MT

6:38 PM MDT on May 28, 2015 (GMT -0600)
Water Plant | | Change Station
CLOSE
Current Station
Personal Weather Station
Location: Colstrip, MT
Elevation: 3255 ft
Nearby Weather Stations
Active Advisory: Flood Warning

Elev 3255 ft 45.89 °N, 106.63 °W | Updated 3 minutes ago

Overcast
Overcast
56.9 °F
Feels Like 56.9 °F
N
9.0
Wind Variable Wind from WSW
Gusts 12.0 mph

Today
High -- | Low -- °F
--% Chance of Precip.
Yesterday
High -- | Low -- °F
Precip. -- in
5:22 AM 8:45 PM
Waxing Gibbous, 79% visible
Pressure 29.93 in
Visibility 10.0 miles
Clouds Few 6000 ft
Scattered Clouds 7500 ft
Scattered Clouds 10000 ft
Dew Point 52 °F
Humidity 83%
Rainfall 0.03 in
Snow Depth Not available.
UV 2 out of 12
Pollen 8.40 out of 12
Air Quality Not available.
Flu Activity Sporadic
METAR KMLS 282353Z AUTO 36015KT 10SM FEW060 SCT075 SCT100 23/09 A2995 RMK AO2 LTG DSNT SE AND S SLP133 T02280094 10250 20217 53009

More Conditions Fewer Conditions

Pressure 29.93 in
Visibility 10.0 miles
Clouds Few 6000 ft
Scattered Clouds 7500 ft
Scattered Clouds 10000 ft
Dew Point 52 °F
Humidity 83%
Rainfall 0.03 in
Snow Depth Not available.
UV 2 out of 12
Pollen 8.40 out of 12
Air Quality Not available.
Flu Activity Sporadic
METAR KMLS 282353Z AUTO 36015KT 10SM FEW060 SCT075 SCT100 23/09 A2995 RMK AO2 LTG DSNT SE AND S SLP133 T02280094 10250 20217 53009

More Conditions Fewer Conditions

10-Day Weather Forecast

Almanac

Astronomy

May. 28, 2015 Rise Set
Actual Time
Civil Twilight
Nautical Twilight
Astronomical Twilight
Moon
Length of Visible Light
Length of Day
Tomorrow will be .
, % of the Moon is Illuminated

Today's Extremes

State Highs State Lows

Community

WunderPhotos

Upload Photos

1,825,099 photos uploaded!

WunderBlogs® & News

Nearby

Air Quality

  Air Quality AQ Index Pollutant
Not available.

Snow Depth

Station Depth Elevation

Earthquake Activity

City Distance Mag. Time & Date
Minimum magnitude displayed is 2.5.

Coastal Water Temperatures

Place Temperature

Stations

Nearby Weather Stations

Station Location Temp. Windchill Dew Point Humidity Wind Precip. Elev Updated Type
                   
Flood Warning
Statement as of 10:26 AM MDT on May 28, 2015

The Flood Warning continues for
The Tongue river at Birney affecting Rosebud County.
* Until Friday evening... or until the warning is cancelled.
* At 9 am Thursday the stage was 6.2 feet.
* Flood stage is 6.0 feet.
* Minor flooding is occurring.
* Forecast... the river crested near 6.2 feet early this morning. The
river is expected to fall below flood stage by late this afternoon
or evening.

             Flood observed forecast today
location stage stage day time noon 3pm 6pm

Tongue river
Birney 6.0 6.2 Thu 09 am 6.1 6.0 5.8



Lat... Lon 4594 10620 4581 10620 4579 10624 4555 10624
      4507 10676 4509 10684